Time;durP1;ratioP1;P1;durP2;ratioP2;P2;SDS_P1;SDS_P2;PMS_P1;PMS_P2;Temp;Humidity;BMP_temperature;BMP_pressure;BME280_temperature;BME280_humidity;BME280_pressure;Samples;Min_cycle;Max_cycle;Signal;HPM_P1;HPM_P2
2022/10/01 00:00:23;;;;;;;8.68;7.22;;;11.80;99.90;;;;;;5072345;28;20076;-74
2022/10/01 00:02:49;;;;;;;9.40;8.10;;;11.70;99.90;;;;;;5072097;28;20041;-74
2022/10/01 00:05:14;;;;;;;12.73;8.48;;;11.60;99.90;;;;;;5073484;28;20065;-74
2022/10/01 00:07:42;;;;;;;8.38;7.57;;;11.70;99.90;;;;;;5071977;28;20045;-74
2022/10/01 00:10:09;;;;;;;11.60;8.07;;;11.60;99.90;;;;;;5071906;28;20094;-74
2022/10/01 00:12:37;;;;;;;11.02;8.65;;;11.50;99.90;;;;;;5071792;28;20040;-74
2022/10/01 00:15:07;;;;;;;12.15;8.68;;;11.60;99.90;;;;;;5073401;28;20097;-74
2022/10/01 00:17:32;;;;;;;11.48;8.70;;;11.60;99.90;;;;;;5071838;28;20040;-74
2022/10/01 00:19:58;;;;;;;10.18;8.45;;;11.50;99.90;;;;;;5071875;28;20097;-74
2022/10/01 00:22:23;;;;;;;12.60;8.80;;;11.60;99.90;;;;;;5071448;28;20060;-74
2022/10/01 00:24:49;;;;;;;11.98;9.50;;;11.40;99.90;;;;;;5071624;28;20037;-74
2022/10/01 00:27:15;;;;;;;11.27;8.80;;;11.40;99.90;;;;;;5071515;28;20041;-74
2022/10/01 00:29:43;;;;;;;10.82;9.73;;;11.50;99.90;;;;;;5071719;28;20076;-74
2022/10/01 00:32:09;;;;;;;10.57;9.27;;;11.50;99.90;;;;;;5071787;28;20071;-74
2022/10/01 00:34:34;;;;;;;11.98;9.52;;;11.40;99.90;;;;;;5071503;28;20036;-74
2022/10/01 00:37:00;;;;;;;14.23;10.18;;;11.50;99.90;;;;;;5072833;28;20052;-74
2022/10/01 00:39:25;;;;;;;11.80;10.05;;;11.40;99.90;;;;;;5072661;28;20094;-74
2022/10/01 00:41:51;;;;;;;11.63;9.75;;;11.50;99.90;;;;;;5072514;28;20094;-74
2022/10/01 00:44:31;;;;;;;12.43;10.50;;;11.30;99.90;;;;;;5072338;28;20094;-74
2022/10/01 00:47:03;;;;;;;11.48;10.27;;;11.40;99.90;;;;;;5071327;28;20044;-74
2022/10/01 00:49:32;;;;;;;14.23;10.10;;;11.30;99.90;;;;;;5071226;28;20044;-74
2022/10/01 00:52:02;;;;;;;11.07;9.95;;;11.30;99.90;;;;;;5071393;28;20041;-74
2022/10/01 00:54:33;;;;;;;15.10;10.60;;;11.40;99.90;;;;;;5072042;28;20638;-74
2022/10/01 00:57:01;;;;;;;15.65;10.77;;;11.30;99.90;;;;;;5072417;28;20524;-74
2022/10/01 00:59:28;;;;;;;13.65;11.52;;;11.40;99.90;;;;;;5070969;28;20048;-75
2022/10/01 01:01:53;;;;;;;12.35;11.05;;;11.30;99.90;;;;;;5071049;28;20159;-74
2022/10/01 01:04:19;;;;;;;12.98;11.00;;;11.40;99.90;;;;;;5070727;28;20589;-74
2022/10/01 01:06:56;;;;;;;12.63;10.88;;;11.40;99.90;;;;;;5072013;28;20039;-74
2022/10/01 01:09:35;;;;;;;15.02;11.65;;;11.30;99.90;;;;;;5087761;28;20525;-74
2022/10/01 01:12:24;;;;;;;11.80;10.25;;;11.40;99.90;;;;;;5070906;28;20562;-74
2022/10/01 01:15:06;;;;;;;14.75;11.85;;;11.30;99.90;;;;;;5072141;28;20120;-74
2022/10/01 01:17:40;;;;;;;15.20;11.38;;;11.20;99.90;;;;;;5070428;28;20042;-75
2022/10/01 01:20:27;;;;;;;14.20;11.52;;;11.20;99.90;;;;;;5071913;28;20071;-74
2022/10/01 01:23:15;;;;;;;13.25;11.00;;;11.20;99.90;;;;;;5071655;28;20051;-74
2022/10/01 01:25:53;;;;;;;13.20;11.25;;;11.20;99.90;;;;;;5070589;28;20076;-74
2022/10/01 01:28:31;;;;;;;12.85;10.38;;;11.30;99.90;;;;;;5072066;28;20078;-74
2022/10/01 01:31:03;;;;;;;15.93;12.02;;;11.40;99.90;;;;;;5071854;28;20036;-75
2022/10/01 01:33:33;;;;;;;16.88;10.30;;;11.20;99.90;;;;;;5071526;28;20075;-74
2022/10/01 01:36:10;;;;;;;14.80;11.90;;;11.30;99.90;;;;;;5070771;28;20059;-74
2022/10/01 01:39:01;;;;;;;14.00;11.05;;;11.30;99.90;;;;;;5071889;28;20044;-74
2022/10/01 01:41:31;;;;;;;13.90;11.40;;;11.30;99.90;;;;;;5071853;28;20040;-74
2022/10/01 01:44:01;;;;;;;16.38;11.50;;;11.30;99.90;;;;;;5071476;28;20084;-75
2022/10/01 01:46:32;;;;;;;12.23;10.82;;;11.10;99.90;;;;;;5071496;28;20037;-75
2022/10/01 01:49:03;;;;;;;13.35;11.18;;;11.20;99.90;;;;;;5071812;28;20115;-75
2022/10/01 01:51:49;;;;;;;15.77;10.95;;;11.20;99.90;;;;;;5072006;28;20040;-74
2022/10/01 01:54:15;;;;;;;12.88;9.82;;;11.20;99.90;;;;;;5070162;28;20050;-74
2022/10/01 01:56:41;;;;;;;13.02;11.23;;;11.10;99.90;;;;;;5071530;28;20040;-73
2022/10/01 01:59:07;;;;;;;13.23;10.15;;;11.10;99.90;;;;;;5071828;28;20064;-73
2022/10/01 02:01:41;;;;;;;14.52;10.68;;;11.10;99.90;;;;;;5087172;28;20092;-73
2022/10/01 02:04:26;;;;;;;12.18;10.40;;;11.30;99.90;;;;;;5071258;28;20548;-74
2022/10/01 02:07:19;;;;;;;12.93;10.70;;;11.10;99.90;;;;;;5071461;28;20063;-74
2022/10/01 02:09:57;;;;;;;12.30;10.35;;;11.10;99.90;;;;;;5070347;28;20044;-74
2022/10/01 02:12:43;;;;;;;11.35;9.68;;;11.10;99.90;;;;;;5071331;28;20113;-75
2022/10/01 02:15:13;;;;;;;12.18;10.15;;;11.20;99.90;;;;;;5070431;28;20040;-74
2022/10/01 02:18:08;;;;;;;15.30;9.93;;;11.10;99.90;;;;;;5071340;28;20062;-75
2022/10/01 02:20:38;;;;;;;12.38;9.27;;;11.30;99.90;;;;;;5071259;28;20094;-75
2022/10/01 02:23:36;;;;;;;14.75;9.77;;;11.20;99.90;;;;;;5069878;28;20056;-75
2022/10/01 02:26:08;;;;;;;10.07;8.73;;;11.20;99.90;;;;;;5062493;28;20071;-75
2022/10/01 02:28:38;;;;;;;11.75;9.75;;;11.10;99.90;;;;;;5072587;28;20045;-74
2022/10/01 02:31:03;;;;;;;13.68;9.57;;;11.20;99.90;;;;;;5075272;28;20036;-74
2022/10/01 02:33:33;;;;;;;12.52;8.95;;;11.10;99.90;;;;;;5075049;28;20452;-74
2022/10/01 02:36:01;;;;;;;10.32;9.23;;;11.10;99.90;;;;;;5075035;28;20047;-74
2022/10/01 02:38:28;;;;;;;12.43;9.43;;;11.20;99.90;;;;;;5073555;28;20040;-75
2022/10/01 02:40:59;;;;;;;13.82;9.25;;;11.20;99.90;;;;;;5074953;28;20048;-75
2022/10/01 02:43:31;;;;;;;9.52;7.88;;;11.10;99.90;;;;;;5074782;28;20032;-75
2022/10/01 02:46:08;;;;;;;11.13;9.20;;;11.20;99.90;;;;;;5074918;28;20040;-75
2022/10/01 02:48:34;;;;;;;9.73;8.73;;;11.20;99.90;;;;;;5074791;28;20041;-75
2022/10/01 02:51:10;;;;;;;13.43;7.85;;;11.20;99.90;;;;;;5074681;28;20098;-74
2022/10/01 02:53:51;;;;;;;9.70;7.68;;;11.20;99.90;;;;;;5074382;28;20520;-75
2022/10/01 02:57:21;;;;;;;8.90;7.75;;;11.20;99.90;;;;;;5073420;28;20170;-74
2022/10/01 02:59:06;;;;;;;9.70;7.38;;;11.10;99.90;;;;;;5073322;28;20044;-75
2022/10/01 03:01:34;;;;;;;9.13;6.95;;;11.20;99.90;;;;;;5074870;28;20045;-74
2022/10/01 03:04:01;;;;;;;9.57;7.07;;;11.10;99.90;;;;;;5074460;28;20115;-74
2022/10/01 03:06:26;;;;;;;9.43;7.22;;;11.20;99.90;;;;;;5073328;28;20052;-74
2022/10/01 03:08:52;;;;;;;9.13;6.68;;;11.20;99.90;;;;;;5074471;28;20037;-74
2022/10/01 03:11:19;;;;;;;10.75;8.20;;;11.10;99.90;;;;;;5074473;28;20044;-75
2022/10/01 03:13:45;;;;;;;10.55;8.18;;;11.10;99.90;;;;;;5072683;28;20072;-74
2022/10/01 03:16:10;;;;;;;8.63;7.10;;;11.10;99.90;;;;;;5073351;28;20090;-75
2022/10/01 03:18:36;;;;;;;8.73;7.47;;;11.10;99.90;;;;;;5072834;28;20044;-75
2022/10/01 03:21:01;;;;;;;9.38;7.43;;;11.10;99.90;;;;;;5074337;28;20109;-74
2022/10/01 03:23:27;;;;;;;11.05;7.88;;;11.30;99.90;;;;;;5072651;28;20413;-75
2022/10/01 03:25:52;;;;;;;9.40;7.75;;;11.30;99.90;;;;;;5074157;28;20476;-75
2022/10/01 03:28:18;;;;;;;7.45;6.65;;;11.30;99.90;;;;;;5073946;28;20498;-74
2022/10/01 03:30:44;;;;;;;11.32;8.55;;;11.40;99.90;;;;;;5073036;28;20043;-74
2022/10/01 03:33:09;;;;;;;8.07;6.85;;;11.20;99.90;;;;;;5072469;28;20480;-75
2022/10/01 03:35:35;;;;;;;7.97;7.15;;;11.30;99.90;;;;;;5072770;28;20116;-75
2022/10/01 03:38:01;;;;;;;8.23;6.82;;;11.20;99.90;;;;;;5074104;28;20413;-75
2022/10/01 03:40:27;;;;;;;8.90;6.75;;;11.30;99.90;;;;;;5073567;28;20044;-75
2022/10/01 03:42:53;;;;;;;8.52;6.55;;;11.40;99.90;;;;;;5072264;28;20044;-74
2022/10/01 03:45:18;;;;;;;8.68;7.20;;;11.40;99.90;;;;;;5072774;28;20075;-74
2022/10/01 03:47:50;;;;;;;8.35;6.50;;;11.40;99.90;;;;;;5073862;28;20482;-74
2022/10/01 03:50:16;;;;;;;8.02;5.95;;;11.20;99.90;;;;;;5073717;28;20055;-74
2022/10/01 03:52:45;;;;;;;6.90;5.93;;;11.40;99.90;;;;;;5072355;28;20041;-74
2022/10/01 03:55:11;;;;;;;6.78;5.53;;;11.40;99.90;;;;;;5073621;28;20116;-74
2022/10/01 03:57:36;;;;;;;7.35;5.13;;;11.40;99.90;;;;;;5070227;28;20112;-75
2022/10/01 04:00:04;;;;;;;7.85;5.40;;;11.30;99.90;;;;;;5072012;28;20032;-75
2022/10/01 04:02:29;;;;;;;4.78;4.25;;;11.40;99.90;;;;;;5073331;28;20121;-75
2022/10/01 04:04:55;;;;;;;5.70;4.53;;;11.40;99.90;;;;;;5073342;28;20489;-74
2022/10/01 04:07:21;;;;;;;5.03;3.88;;;11.50;99.90;;;;;;5073294;28;20040;-75
2022/10/01 04:09:46;;;;;;;5.53;4.63;;;11.50;99.90;;;;;;5072193;28;20045;-74
2022/10/01 04:12:12;;;;;;;4.00;3.35;;;11.50;99.90;;;;;;5071835;28;20509;-74
2022/10/01 04:14:37;;;;;;;6.30;3.97;;;11.30;99.90;;;;;;5073191;28;20107;-74
2022/10/01 04:17:03;;;;;;;4.13;3.70;;;11.50;99.90;;;;;;5071618;28;20375;-74
2022/10/01 04:19:28;;;;;;;5.47;3.95;;;11.40;99.90;;;;;;5071553;28;20448;-74
2022/10/01 04:21:54;;;;;;;5.28;3.55;;;11.30;99.90;;;;;;5073142;28;20579;-74
2022/10/01 04:24:19;;;;;;;5.72;3.45;;;11.50;99.90;;;;;;5072738;28;20520;-74
2022/10/01 04:26:45;;;;;;;7.85;3.38;;;11.50;99.90;;;;;;5072794;28;20469;-74
2022/10/01 04:29:10;;;;;;;3.97;3.58;;;11.40;99.90;;;;;;5088492;28;20120;-74
2022/10/01 04:31:36;;;;;;;4.88;3.55;;;11.50;99.90;;;;;;5072991;28;20391;-74
2022/10/01 04:34:02;;;;;;;4.38;3.83;;;11.30;99.90;;;;;;5072633;28;20106;-75
2022/10/01 04:36:27;;;;;;;4.38;3.28;;;11.50;99.90;;;;;;5072820;28;20083;-74
2022/10/01 04:38:55;;;;;;;5.57;4.18;;;11.50;99.90;;;;;;5071406;28;20147;-75
2022/10/01 04:41:21;;;;;;;5.68;3.72;;;11.30;99.90;;;;;;5071410;28;20516;-74
2022/10/01 04:43:46;;;;;;;4.45;3.50;;;11.50;99.90;;;;;;5071082;28;20044;-74
2022/10/01 04:46:13;;;;;;;5.15;3.75;;;11.50;99.90;;;;;;5071205;28;20481;-75
2022/10/01 04:48:38;;;;;;;4.72;3.70;;;11.40;99.90;;;;;;5072544;28;20076;-74
2022/10/01 04:51:04;;;;;;;5.65;3.70;;;11.50;99.90;;;;;;5071774;28;20075;-74
2022/10/01 04:53:29;;;;;;;5.22;4.00;;;11.60;99.90;;;;;;5072176;28;20074;-74
2022/10/01 04:55:55;;;;;;;5.03;3.38;;;11.50;99.90;;;;;;5072230;28;20043;-74
2022/10/01 04:58:21;;;;;;;4.80;3.53;;;11.40;99.90;;;;;;5070927;28;20036;-74
2022/10/01 05:00:48;;;;;;;5.03;3.85;;;11.50;99.90;;;;;;5070905;28;20044;-74
2022/10/01 05:03:13;;;;;;;5.68;3.90;;;11.50;99.90;;;;;;5072033;28;20062;-74
2022/10/01 05:05:39;;;;;;;5.78;3.92;;;11.50;99.90;;;;;;5070839;28;20037;-74
2022/10/01 05:08:05;;;;;;;5.15;4.10;;;11.40;99.90;;;;;;5070958;28;20414;-74
2022/10/01 05:10:31;;;;;;;6.82;4.40;;;11.50;99.90;;;;;;5072061;28;20033;-74
2022/10/01 05:12:57;;;;;;;7.20;4.63;;;11.50;99.90;;;;;;5071798;28;20134;-74
2022/10/01 05:15:22;;;;;;;6.65;4.47;;;11.60;99.90;;;;;;5072067;28;20037;-74
2022/10/01 05:17:48;;;;;;;6.10;4.95;;;11.50;99.90;;;;;;5072072;28;20040;-74
2022/10/01 05:20:22;;;;;;;5.25;4.57;;;11.60;99.90;;;;;;5093167;22;20044;-75
2022/10/01 05:22:48;;;;;;;5.30;4.80;;;11.50;99.90;;;;;;5070167;28;20036;-74
2022/10/01 05:25:15;;;;;;;5.57;5.00;;;11.60;99.90;;;;;;5070742;28;20310;-75
2022/10/01 05:27:40;;;;;;;5.55;5.00;;;11.70;99.90;;;;;;5070567;28;20047;-75
2022/10/01 05:30:09;;;;;;;7.30;5.00;;;11.60;99.90;;;;;;5053751;28;20401;-74
2022/10/01 05:32:35;;;;;;;6.75;5.50;;;11.70;99.90;;;;;;5069878;28;20600;-75
2022/10/01 05:35:01;;;;;;;7.72;5.15;;;11.70;99.90;;;;;;5070776;28;20032;-75
2022/10/01 05:37:27;;;;;;;6.15;5.55;;;11.70;99.90;;;;;;5071802;28;20517;-74
2022/10/01 05:39:52;;;;;;;5.45;4.95;;;11.60;99.90;;;;;;5072005;28;20033;-74
2022/10/01 05:42:18;;;;;;;7.80;5.53;;;11.60;99.90;;;;;;5070672;28;20506;-75
2022/10/01 05:44:48;;;;;;;7.45;5.10;;;11.80;99.90;;;;;;5070739;28;20048;-75
2022/10/01 05:47:15;;;;;;;6.15;5.55;;;11.80;99.90;;;;;;5053678;28;20094;-75
2022/10/01 05:49:43;;;;;;;6.78;6.07;;;11.70;99.90;;;;;;5070330;28;20569;-75
2022/10/01 05:52:14;;;;;;;8.95;6.22;;;11.70;99.90;;;;;;5070187;28;20040;-74
2022/10/01 05:54:40;;;;;;;9.18;6.28;;;11.80;99.90;;;;;;5070198;28;20509;-75
2022/10/01 05:57:06;;;;;;;6.70;6.03;;;11.80;99.90;;;;;;5071005;28;20037;-74
2022/10/01 05:59:33;;;;;;;6.53;5.72;;;11.80;99.90;;;;;;5053519;28;20051;-74
2022/10/01 06:01:59;;;;;;;8.20;6.78;;;11.80;99.90;;;;;;5070646;28;20113;-74
2022/10/01 06:04:24;;;;;;;8.50;6.82;;;11.80;99.90;;;;;;5057469;28;20498;-75
2022/10/01 06:06:51;;;;;;;9.18;7.20;;;11.90;99.90;;;;;;5074254;28;20123;-75
2022/10/01 06:09:17;;;;;;;8.88;7.45;;;11.80;99.90;;;;;;5074557;28;20041;-74
2022/10/01 06:11:42;;;;;;;10.20;7.57;;;11.80;99.90;;;;;;5074171;28;20123;-75
2022/10/01 06:14:08;;;;;;;8.07;7.15;;;11.80;99.90;;;;;;5073904;28;20036;-76
2022/10/01 06:16:33;;;;;;;10.65;7.35;;;11.90;99.90;;;;;;5074064;28;20047;-74
2022/10/01 06:18:59;;;;;;;9.57;8.40;;;11.90;99.90;;;;;;5075128;28;20044;-74
2022/10/01 06:21:26;;;;;;;10.25;8.88;;;12.00;99.90;;;;;;5076963;28;20402;-79
2022/10/01 06:23:52;;;;;;;12.50;9.40;;;12.00;99.90;;;;;;5074388;28;20032;-77
2022/10/01 06:26:18;;;;;;;13.80;8.85;;;12.00;99.90;;;;;;5057267;28;20421;-77
2022/10/01 06:28:44;;;;;;;13.43;8.85;;;12.00;99.90;;;;;;5073914;28;20044;-76
2022/10/01 06:31:09;;;;;;;11.50;8.80;;;12.00;99.90;;;;;;5074124;28;20043;-77
2022/10/01 06:33:35;;;;;;;13.02;8.90;;;12.00;99.90;;;;;;5057390;28;20037;-76
2022/10/01 06:36:02;;;;;;;10.38;8.70;;;12.20;99.90;;;;;;5057167;28;20481;-76
2022/10/01 06:38:27;;;;;;;12.55;9.65;;;12.10;99.90;;;;;;5057407;28;20115;-76
2022/10/01 06:40:58;;;;;;;15.23;10.63;;;12.20;99.90;;;;;;5073584;28;20124;-77
2022/10/01 06:43:25;;;;;;;15.50;10.52;;;12.20;99.90;;;;;;5073326;28;20082;-76
2022/10/01 06:45:52;;;;;;;13.82;10.27;;;12.20;99.90;;;;;;5074669;28;20436;-77
2022/10/01 06:48:18;;;;;;;14.30;10.05;;;12.30;99.90;;;;;;5073985;28;20055;-78
2022/10/01 06:50:45;;;;;;;15.25;10.60;;;12.30;99.90;;;;;;5058142;28;20032;-79
2022/10/01 06:53:12;;;;;;;14.57;10.85;;;12.40;99.90;;;;;;5074328;28;20040;-78
2022/10/01 06:55:38;;;;;;;16.02;11.77;;;12.60;99.90;;;;;;5074631;28;20518;-78
2022/10/01 06:58:13;;;;;;;15.80;11.65;;;12.80;99.90;;;;;;5074963;28;20044;-79
2022/10/01 07:00:38;;;;;;;16.90;12.00;;;12.80;99.90;;;;;;5074297;28;20046;-78
2022/10/01 07:03:09;;;;;;;16.30;11.10;;;12.80;99.90;;;;;;5057675;28;20051;-78
2022/10/01 07:05:36;;;;;;;16.40;12.05;;;12.80;99.90;;;;;;5074911;28;20397;-78
2022/10/01 07:08:01;;;;;;;13.65;11.07;;;12.90;99.90;;;;;;5074323;28;20490;-78
2022/10/01 07:10:27;;;;;;;14.55;11.10;;;13.00;99.90;;;;;;5057797;28;20039;-78
2022/10/01 07:12:52;;;;;;;13.50;11.13;;;13.00;99.90;;;;;;5073945;28;20485;-78
2022/10/01 07:15:21;;;;;;;15.30;10.82;;;12.90;99.90;;;;;;5057170;28;20033;-78
2022/10/01 07:17:49;;;;;;;17.13;11.68;;;12.90;99.90;;;;;;5079222;28;20051;-79
2022/10/01 07:20:19;;;;;;;20.38;12.38;;;13.00;99.90;;;;;;5060327;28;20101;-80
2022/10/01 07:22:45;;;;;;;14.63;10.88;;;12.90;99.90;;;;;;5076278;28;20082;-79
2022/10/01 07:25:11;;;;;;;13.77;11.25;;;13.00;99.90;;;;;;5058081;28;20048;-79
2022/10/01 07:27:37;;;;;;;15.23;11.27;;;13.10;99.90;;;;;;5057678;28;20032;-78
2022/10/01 07:30:04;;;;;;;15.68;10.52;;;13.10;99.90;;;;;;5057570;28;20032;-78
2022/10/01 07:32:30;;;;;;;15.60;10.50;;;13.20;99.90;;;;;;5057507;28;20048;-78
2022/10/01 07:34:56;;;;;;;15.35;10.63;;;13.20;99.90;;;;;;5074136;28;20036;-78
2022/10/01 07:37:22;;;;;;;12.45;10.43;;;13.20;99.90;;;;;;5074001;28;20048;-79
2022/10/01 07:39:48;;;;;;;14.43;10.88;;;13.10;99.90;;;;;;5074345;28;20406;-79
2022/10/01 07:42:14;;;;;;;14.77;10.93;;;13.10;99.90;;;;;;5057873;28;20462;-79
2022/10/01 07:44:39;;;;;;;14.32;10.70;;;13.30;99.90;;;;;;5073887;28;20106;-77
2022/10/01 07:47:05;;;;;;;12.45;8.77;;;13.40;99.90;;;;;;5073981;28;20393;-77
2022/10/01 07:49:31;;;;;;;16.33;8.82;;;13.30;99.90;;;;;;5073923;28;20079;-79
2022/10/01 07:51:57;;;;;;;12.48;8.68;;;13.20;99.90;;;;;;5057746;28;20036;-78
2022/10/01 07:54:24;;;;;;;12.77;8.05;;;13.40;99.90;;;;;;5073467;28;20280;-78
2022/10/01 07:56:54;;;;;;;13.85;9.13;;;13.60;99.90;;;;;;5072929;28;20068;-77
2022/10/01 07:59:20;;;;;;;12.23;7.78;;;13.80;99.90;;;;;;5073457;28;20421;-78
2022/10/01 08:01:53;;;;;;;11.88;7.00;;;14.10;99.90;;;;;;5073457;28;20040;-78
2022/10/01 08:07:05;;;;;;;13.07;6.28;;;14.60;99.90;;;;;;5073000;28;20098;-78
2022/10/01 08:09:30;;;;;;;7.43;5.75;;;14.80;99.90;;;;;;5072863;28;20401;-78
2022/10/01 08:11:56;;;;;;;9.23;4.60;;;15.00;99.90;;;;;;5056672;28;20123;-79
2022/10/01 08:14:21;;;;;;;11.25;4.22;;;15.10;99.90;;;;;;5072771;28;20032;-78
2022/10/01 08:16:47;;;;;;;7.18;4.05;;;15.00;99.90;;;;;;5056455;28;20040;-78
2022/10/01 08:19:14;;;;;;;7.13;3.70;;;15.40;99.90;;;;;;5055992;28;20040;-78
2022/10/01 08:21:40;;;;;;;8.85;3.40;;;15.50;99.90;;;;;;5072525;28;20040;-78
2022/10/01 08:24:06;;;;;;;5.55;3.72;;;15.40;99.90;;;;;;5072555;28;20042;-79
2022/10/01 08:26:31;;;;;;;8.15;3.80;;;15.80;99.90;;;;;;5071351;28;20127;-78
2022/10/01 08:28:58;;;;;;;7.22;3.67;;;16.00;99.90;;;;;;5055379;28;20490;-78
2022/10/01 08:31:24;;;;;;;9.93;3.28;;;15.80;99.90;;;;;;5072339;28;20067;-78
2022/10/01 08:33:50;;;;;;;9.18;2.92;;;15.60;99.90;;;;;;5055335;28;20032;-78
2022/10/01 08:36:19;;;;;;;14.52;3.17;;;16.00;99.90;;;;;;5071631;28;20453;-78
2022/10/01 08:38:45;;;;;;;10.10;3.03;;;16.00;99.90;;;;;;5072126;28;20048;-78
2022/10/01 08:41:38;;;;;;;7.13;2.60;;;16.10;99.90;;;;;;5072972;28;20089;-79
2022/10/01 08:44:06;;;;;;;7.97;2.08;;;16.00;99.90;;;;;;5073001;28;20052;-79
2022/10/01 08:46:35;;;;;;;7.22;2.25;;;16.00;99.90;;;;;;5055813;28;20048;-78
2022/10/01 08:49:12;;;;;;;8.32;2.28;;;15.80;99.90;;;;;;5072212;28;20040;-79
2022/10/01 08:51:51;;;;;;;7.93;2.72;;;16.00;99.90;;;;;;5055775;28;20474;-78
2022/10/01 08:54:31;;;;;;;6.43;2.50;;;15.90;99.90;;;;;;5071918;28;20090;-78
2022/10/01 08:57:00;;;;;;;7.93;2.05;;;16.20;99.90;;;;;;5054772;28;20036;-78
2022/10/01 08:59:39;;;;;;;6.70;2.15;;;16.10;99.90;;;;;;5071994;28;20107;-78
2022/10/01 09:02:21;;;;;;;12.57;2.50;;;16.10;99.90;;;;;;5055557;28;20535;-78
2022/10/01 09:04:49;;;;;;;10.38;2.90;;;16.00;99.90;;;;;;5071972;28;20518;-78
2022/10/01 09:07:33;;;;;;;10.60;2.63;;;16.10;99.90;;;;;;5071823;28;20501;-78
2022/10/01 09:10:27;;;;;;;8.85;2.20;;;16.20;99.90;;;;;;5071826;28;20037;-79
2022/10/01 09:13:22;;;;;;;12.77;3.38;;;16.20;99.90;;;;;;5054783;28;20036;-79
2022/10/01 09:16:21;;;;;;;14.32;3.05;;;16.10;99.90;;;;;;5045055;28;20499;-79
2022/10/01 09:19:05;;;;;;;11.25;2.75;;;16.00;99.90;;;;;;5071727;28;20508;-78
2022/10/01 09:21:48;;;;;;;13.77;3.05;;;16.40;99.90;;;;;;5071589;28;20066;-78
2022/10/01 09:24:19;;;;;;;18.20;4.18;;;16.10;99.90;;;;;;5071500;28;20553;-79
2022/10/01 09:26:49;;;;;;;12.15;3.13;;;16.30;99.90;;;;;;5071935;28;20044;-78
2022/10/01 09:29:28;;;;;;;12.65;2.92;;;16.10;99.90;;;;;;5072123;28;20029;-79
2022/10/01 09:31:55;;;;;;;14.05;3.38;;;15.90;99.90;;;;;;5071842;28;20040;-79
2022/10/01 09:34:42;;;;;;;18.52;3.60;;;16.10;99.90;;;;;;5054822;28;20029;-78
2022/10/01 09:37:29;;;;;;;16.00;3.45;;;16.10;99.90;;;;;;5054715;28;20103;-79
2022/10/01 09:40:20;;;;;;;18.67;4.38;;;16.00;99.90;;;;;;5071783;28;20394;-78
2022/10/01 09:42:46;;;;;;;13.93;3.08;;;16.20;99.90;;;;;;5070992;28;20724;-79
2022/10/01 09:45:19;;;;;;;11.45;2.92;;;16.10;99.90;;;;;;5071380;28;20048;-79
2022/10/01 09:47:50;;;;;;;8.45;2.13;;;16.10;99.90;;;;;;5072199;28;20044;-79
2022/10/01 09:50:29;;;;;;;13.18;3.47;;;15.70;99.90;;;;;;5071149;28;20510;-78
2022/10/01 09:52:57;;;;;;;6.35;2.42;;;15.60;99.90;;;;;;5070803;28;20036;-78
2022/10/01 09:55:37;;;;;;;8.70;2.55;;;15.60;99.90;;;;;;5055121;28;20041;-79
2022/10/01 09:58:19;;;;;;;7.68;2.03;;;15.60;99.90;;;;;;5071878;28;20091;-78
2022/10/01 10:00:47;;;;;;;10.38;1.88;;;16.00;99.90;;;;;;5071285;28;20119;-78
2022/10/01 10:03:30;;;;;;;13.32;2.30;;;16.10;99.90;;;;;;5054418;28;20075;-78
2022/10/01 10:05:58;;;;;;;4.63;1.23;;;16.20;99.90;;;;;;5071679;28;20040;-78
2022/10/01 10:08:31;;;;;;;5.47;1.50;;;16.30;99.90;;;;;;5071882;28;20045;-79
2022/10/01 10:11:00;;;;;;;6.00;2.20;;;16.30;99.90;;;;;;5071326;28;20037;-78
2022/10/01 10:13:37;;;;;;;7.00;1.88;;;16.20;99.90;;;;;;5053916;28;20040;-78
2022/10/01 10:16:25;;;;;;;10.93;2.00;;;16.10;99.90;;;;;;5070785;28;20039;-77
2022/10/01 10:18:53;;;;;;;20.58;2.47;;;15.90;99.90;;;;;;5055057;28;20103;-78
2022/10/01 10:21:28;;;;;;;6.10;1.95;;;15.60;99.90;;;;;;5072903;28;20036;-79
2022/10/01 10:23:55;;;;;;;7.18;1.85;;;15.50;99.90;;;;;;5056766;28;20127;-80
2022/10/01 10:26:33;;;;;;;15.55;2.13;;;15.30;99.90;;;;;;5074420;28;20041;-78
2022/10/01 10:29:01;;;;;;;5.90;1.95;;;14.90;99.90;;;;;;5073043;28;20035;-78
2022/10/01 10:31:40;;;;;;;13.05;2.35;;;14.80;99.90;;;;;;5054802;28;20036;-79
2022/10/01 10:34:21;;;;;;;10.88;1.55;;;14.50;99.90;;;;;;5071480;28;20040;-78
2022/10/01 10:36:47;;;;;;;9.10;1.88;;;14.30;99.90;;;;;;5071082;28;20425;-77
2022/10/01 10:39:23;;;;;;;6.68;1.73;;;13.90;99.90;;;;;;5070648;28;20056;-78
2022/10/01 10:41:51;;;;;;;3.10;1.00;;;13.80;99.90;;;;;;5071971;28;20444;-80
2022/10/01 10:44:20;;;;;;;4.60;0.80;;;13.70;99.90;;;;;;5070416;28;20040;-76
2022/10/01 10:46:47;;;;;;;2.28;0.68;;;13.60;99.90;;;;;;5070597;28;20032;-79
2022/10/01 10:49:23;;;;;;;4.05;1.10;;;13.40;99.90;;;;;;5071542;28;20040;-76
2022/10/01 10:51:53;;;;;;;4.38;1.08;;;13.40;99.90;;;;;;5074379;28;20033;-76
2022/10/01 10:54:30;;;;;;;6.97;1.30;;;13.50;99.90;;;;;;5073635;28;20076;-76
2022/10/01 10:57:01;;;;;;;3.65;1.65;;;13.80;99.90;;;;;;5074024;28;20087;-76
2022/10/01 10:59:30;;;;;;;3.20;1.20;;;13.80;99.90;;;;;;5074431;28;20040;-76
2022/10/01 11:01:56;;;;;;;6.43;1.27;;;14.00;99.90;;;;;;5074104;28;20459;-77
2022/10/01 11:04:43;;;;;;;5.75;1.30;;;13.90;99.90;;;;;;5073837;28;20052;-77
2022/10/01 11:07:12;;;;;;;4.63;1.40;;;14.10;99.90;;;;;;5074275;28;20036;-77
2022/10/01 11:10:01;;;;;;;3.75;1.27;;;14.10;99.90;;;;;;5057110;28;20517;-77
2022/10/01 11:12:42;;;;;;;4.25;1.15;;;14.20;99.90;;;;;;5073881;28;20447;-77
2022/10/01 11:15:46;;;;;;;5.97;1.38;;;14.40;99.90;;;;;;5068269;28;20041;-77
2022/10/01 11:18:21;;;;;;;6.70;1.33;;;14.40;99.90;;;;;;5073562;28;20047;-77
2022/10/01 11:21:01;;;;;;;4.68;1.30;;;14.20;99.90;;;;;;5088045;22;20036;-71
2022/10/01 11:24:08;;;;;;;6.13;1.85;;;14.50;99.90;;;;;;5073771;28;20040;-71
2022/10/01 11:26:43;;;;;;;5.47;1.67;;;14.20;99.90;;;;;;5074698;28;20063;-71
2022/10/01 11:29:24;;;;;;;5.50;1.55;;;14.30;99.90;;;;;;5074572;28;20144;-71
2022/10/01 11:32:08;;;;;;;5.25;1.45;;;14.30;99.90;;;;;;5074292;28;20048;-71
2022/10/01 11:34:36;;;;;;;10.27;2.08;;;14.50;99.90;;;;;;5074101;28;20052;-71
2022/10/01 11:37:41;;;;;;;10.48;2.58;;;14.30;99.90;;;;;;5056174;28;20044;-70
2022/10/01 11:40:34;;;;;;;11.80;1.95;;;14.30;99.90;;;;;;5074256;28;20055;-73
2022/10/01 11:43:07;;;;;;;5.40;2.13;;;14.40;99.90;;;;;;5072737;28;20036;-71
2022/10/01 11:45:44;;;;;;;10.55;2.33;;;14.70;99.90;;;;;;5073971;28;20044;-72
2022/10/01 11:48:34;;;;;;;6.90;2.03;;;14.50;99.90;;;;;;5074208;28;20040;-72
2022/10/01 11:51:07;;;;;;;11.30;2.20;;;14.90;99.90;;;;;;5073636;28;20063;-71
2022/10/01 11:53:38;;;;;;;9.82;2.70;;;14.70;99.90;;;;;;5073677;28;20479;-72
2022/10/01 11:59:19;;;;;;;6.75;2.40;;;14.80;99.90;;;;;;5074060;28;20047;-71
2022/10/01 12:02:07;;;;;;;13.32;2.70;;;14.90;99.90;;;;;;5073520;28;20036;-71
2022/10/01 12:04:58;;;;;;;9.80;2.72;;;14.90;99.90;;;;;;5073434;28;20460;-71
2022/10/01 12:07:41;;;;;;;12.35;2.80;;;15.30;99.90;;;;;;5066711;28;20437;-71
2022/10/01 12:10:38;;;;;;;8.27;1.90;;;15.00;99.90;;;;;;5073838;28;20110;-70
2022/10/01 12:13:33;;;;;;;8.23;2.40;;;15.10;99.90;;;;;;5073798;28;20040;-74
2022/10/01 12:16:31;;;;;;;10.52;2.53;;;15.10;99.90;;;;;;5073303;28;20153;-74
2022/10/01 12:19:01;;;;;;;12.55;3.47;;;15.10;99.90;;;;;;5073131;28;20440;-74
2022/10/01 12:21:38;;;;;;;10.57;2.47;;;14.80;99.90;;;;;;5071503;28;20089;-74
2022/10/01 12:24:10;;;;;;;8.95;2.25;;;15.00;99.90;;;;;;5072869;28;20131;-74
2022/10/01 12:26:54;;;;;;;9.32;2.65;;;15.00;99.90;;;;;;5073054;28;20107;-73
2022/10/01 12:29:23;;;;;;;;;;;15.10;99.90;;;;;;5073408;28;20043;-74
2022/10/01 12:32:14;;;;;;;13.73;2.85;;;14.90;99.90;;;;;;5071867;28;19978;-74
2022/10/01 12:35:11;;;;;;;10.27;3.45;;;15.20;99.90;;;;;;5072784;28;20074;-74
2022/10/01 12:37:44;;;;;;;10.18;2.50;;;15.10;99.90;;;;;;5072699;28;20505;-74
2022/10/01 12:40:39;;;;;;;12.00;2.85;;;15.10;99.90;;;;;;5071292;28;20044;-74
2022/10/01 12:43:23;;;;;;;12.02;2.28;;;15.20;99.90;;;;;;5071268;28;20052;-74
2022/10/01 12:46:06;;;;;;;12.98;2.55;;;15.20;99.90;;;;;;5071225;28;20055;-74
2022/10/01 12:48:43;;;;;;;10.30;2.47;;;15.20;99.90;;;;;;5072756;28;20036;-74
2022/10/01 12:51:18;;;;;;;15.85;2.05;;;15.30;99.90;;;;;;5071151;28;20498;-74
2022/10/01 12:53:50;;;;;;;8.48;2.30;;;15.50;99.90;;;;;;5072258;28;20076;-73
2022/10/01 12:56:39;;;;;;;9.82;1.80;;;15.70;99.90;;;;;;5072296;28;20033;-74
2022/10/01 12:59:18;;;;;;;10.75;2.22;;;15.70;99.90;;;;;;5072293;28;20494;-75
2022/10/01 13:02:18;;;;;;;11.90;1.80;;;15.70;99.90;;;;;;5072393;28;20032;-74
2022/10/01 13:05:26;;;;;;;11.00;1.73;;;15.60;99.90;;;;;;5072035;28;20043;-74
2022/10/01 13:08:15;;;;;;;8.13;1.88;;;15.60;99.90;;;;;;5043295;28;20441;-74
2022/10/01 13:10:56;;;;;;;10.90;1.95;;;15.40;99.90;;;;;;5032058;28;20056;-73